sensor_id;sensor_type;location;lat;lon;timestamp;pressure;altitude;pressure_sealevel;temperature;humidity
23261;BME280;11799;47.740;-3.390;2023-05-20T00:00:27;102241.63;;;12.61;100.00
23261;BME280;11799;47.740;-3.390;2023-05-20T00:02:53;102234.72;;;12.58;100.00
23261;BME280;11799;47.740;-3.390;2023-05-20T00:05:18;102237.47;;;12.56;100.00
23261;BME280;11799;47.740;-3.390;2023-05-20T00:07:44;102237.56;;;12.55;100.00
23261;BME280;11799;47.740;-3.390;2023-05-20T00:10:10;102228.94;;;12.51;100.00
23261;BME280;11799;47.740;-3.390;2023-05-20T00:12:37;102238.69;;;12.51;100.00
23261;BME280;11799;47.740;-3.390;2023-05-20T00:15:03;102214.13;;;12.35;100.00
23261;BME280;11799;47.740;-3.390;2023-05-20T00:17:29;102235.50;;;12.46;100.00
23261;BME280;11799;47.740;-3.390;2023-05-20T00:19:55;102229.34;;;12.45;100.00
23261;BME280;11799;47.740;-3.390;2023-05-20T00:22:21;102232.00;;;12.45;100.00
23261;BME280;11799;47.740;-3.390;2023-05-20T00:24:46;102227.53;;;12.46;100.00
23261;BME280;11799;47.740;-3.390;2023-05-20T00:27:12;102226.97;;;12.41;100.00
23261;BME280;11799;47.740;-3.390;2023-05-20T00:29:37;102220.72;;;12.42;100.00
23261;BME280;11799;47.740;-3.390;2023-05-20T00:32:03;102213.94;;;12.38;100.00
23261;BME280;11799;47.740;-3.390;2023-05-20T00:34:29;102208.72;;;12.36;100.00
23261;BME280;11799;47.740;-3.390;2023-05-20T00:36:55;102205.22;;;12.36;100.00
23261;BME280;11799;47.740;-3.390;2023-05-20T00:39:20;102207.13;;;12.34;100.00
23261;BME280;11799;47.740;-3.390;2023-05-20T00:41:46;102200.13;;;12.33;100.00
23261;BME280;11799;47.740;-3.390;2023-05-20T00:44:11;102199.38;;;12.31;100.00
23261;BME280;11799;47.740;-3.390;2023-05-20T00:46:37;102207.22;;;12.32;100.00
23261;BME280;11799;47.740;-3.390;2023-05-20T00:49:03;102204.66;;;12.31;100.00
23261;BME280;11799;47.740;-3.390;2023-05-20T00:51:29;102215.34;;;12.29;100.00
23261;BME280;11799;47.740;-3.390;2023-05-20T00:53:55;102211.00;;;12.28;100.00
23261;BME280;11799;47.740;-3.390;2023-05-20T00:56:21;102209.31;;;12.27;100.00
23261;BME280;11799;47.740;-3.390;2023-05-20T00:58:49;102212.03;;;12.26;100.00
23261;BME280;11799;47.740;-3.390;2023-05-20T01:01:14;102202.50;;;12.23;100.00
23261;BME280;11799;47.740;-3.390;2023-05-20T01:03:40;102190.19;;;12.22;100.00
23261;BME280;11799;47.740;-3.390;2023-05-20T01:06:06;102203.63;;;12.19;100.00
23261;BME280;11799;47.740;-3.390;2023-05-20T01:08:32;102192.28;;;12.17;100.00
23261;BME280;11799;47.740;-3.390;2023-05-20T01:11:16;102194.94;;;12.17;100.00
23261;BME280;11799;47.740;-3.390;2023-05-20T01:13:50;102193.44;;;12.13;100.00
23261;BME280;11799;47.740;-3.390;2023-05-20T01:16:17;102185.69;;;12.10;100.00
23261;BME280;11799;47.740;-3.390;2023-05-20T01:18:44;102189.28;;;12.09;100.00
23261;BME280;11799;47.740;-3.390;2023-05-20T01:21:14;102185.88;;;12.07;100.00
23261;BME280;11799;47.740;-3.390;2023-05-20T01:23:40;102184.19;;;12.06;100.00
23261;BME280;11799;47.740;-3.390;2023-05-20T01:26:08;102175.50;;;12.04;100.00
23261;BME280;11799;47.740;-3.390;2023-05-20T01:28:38;102184.47;;;12.01;100.00
23261;BME280;11799;47.740;-3.390;2023-05-20T01:31:07;102184.38;;;12.03;100.00
23261;BME280;11799;47.740;-3.390;2023-05-20T01:33:39;102182.00;;;11.98;100.00
23261;BME280;11799;47.740;-3.390;2023-05-20T01:36:07;102181.34;;;11.95;100.00
23261;BME280;11799;47.740;-3.390;2023-05-20T01:38:34;102173.41;;;11.95;100.00
23261;BME280;11799;47.740;-3.390;2023-05-20T01:41:01;102174.53;;;11.90;100.00
23261;BME280;11799;47.740;-3.390;2023-05-20T01:43:29;102165.66;;;11.92;100.00
23261;BME280;11799;47.740;-3.390;2023-05-20T01:45:55;102162.25;;;11.89;100.00
23261;BME280;11799;47.740;-3.390;2023-05-20T01:48:21;102158.00;;;11.87;100.00
23261;BME280;11799;47.740;-3.390;2023-05-20T01:50:46;102162.44;;;11.86;100.00
23261;BME280;11799;47.740;-3.390;2023-05-20T01:53:12;102151.09;;;11.84;100.00
23261;BME280;11799;47.740;-3.390;2023-05-20T01:55:38;102152.91;;;11.84;100.00
23261;BME280;11799;47.740;-3.390;2023-05-20T01:58:03;102158.38;;;11.81;100.00
23261;BME280;11799;47.740;-3.390;2023-05-20T02:00:30;102156.78;;;11.78;100.00
23261;BME280;11799;47.740;-3.390;2023-05-20T02:02:57;102155.13;;;11.76;100.00
23261;BME280;11799;47.740;-3.390;2023-05-20T02:05:23;102158.72;;;11.75;100.00
23261;BME280;11799;47.740;-3.390;2023-05-20T02:07:49;102144.72;;;11.73;100.00
23261;BME280;11799;47.740;-3.390;2023-05-20T02:10:14;102144.81;;;11.71;100.00
23261;BME280;11799;47.740;-3.390;2023-05-20T02:12:41;102147.66;;;11.68;100.00
23261;BME280;11799;47.740;-3.390;2023-05-20T02:15:07;102147.00;;;11.65;100.00
23261;BME280;11799;47.740;-3.390;2023-05-20T02:17:34;102147.84;;;11.65;100.00
23261;BME280;11799;47.740;-3.390;2023-05-20T02:20:00;102144.53;;;11.62;100.00
23261;BME280;11799;47.740;-3.390;2023-05-20T02:22:25;102141.13;;;11.59;100.00
23261;BME280;11799;47.740;-3.390;2023-05-20T02:24:51;102144.91;;;11.55;100.00
23261;BME280;11799;47.740;-3.390;2023-05-20T02:27:16;102140.69;;;11.53;100.00
23261;BME280;11799;47.740;-3.390;2023-05-20T02:29:42;102131.91;;;11.52;100.00
23261;BME280;11799;47.740;-3.390;2023-05-20T02:32:10;102133.78;;;11.50;100.00
23261;BME280;11799;47.740;-3.390;2023-05-20T02:34:36;102137.38;;;11.49;100.00
23261;BME280;11799;47.740;-3.390;2023-05-20T02:37:02;102141.06;;;11.47;100.00
23261;BME280;11799;47.740;-3.390;2023-05-20T02:39:28;102140.19;;;11.46;100.00
23261;BME280;11799;47.740;-3.390;2023-05-20T02:41:53;102142.94;;;11.45;100.00
23261;BME280;11799;47.740;-3.390;2023-05-20T02:44:19;102141.31;;;11.42;100.00
23261;BME280;11799;47.740;-3.390;2023-05-20T02:46:44;102141.50;;;11.39;100.00
23261;BME280;11799;47.740;-3.390;2023-05-20T02:49:10;102143.41;;;11.37;100.00
23261;BME280;11799;47.740;-3.390;2023-05-20T02:51:35;102140.09;;;11.34;100.00
23261;BME280;11799;47.740;-3.390;2023-05-20T02:54:01;102137.72;;;11.29;100.00
23261;BME280;11799;47.740;-3.390;2023-05-20T02:56:27;102137.81;;;11.28;100.00
23261;BME280;11799;47.740;-3.390;2023-05-20T02:58:53;102147.53;;;11.27;100.00
23261;BME280;11799;47.740;-3.390;2023-05-20T03:01:19;102150.63;;;11.19;100.00
23261;BME280;11799;47.740;-3.390;2023-05-20T03:03:44;102138.72;;;11.12;100.00
23261;BME280;11799;47.740;-3.390;2023-05-20T03:06:10;102145.53;;;11.16;100.00
23261;BME280;11799;47.740;-3.390;2023-05-20T03:08:36;102145.44;;;11.18;100.00
23261;BME280;11799;47.740;-3.390;2023-05-20T03:11:04;102147.41;;;11.14;100.00
23261;BME280;11799;47.740;-3.390;2023-05-20T03:13:29;102140.59;;;11.10;100.00
23261;BME280;11799;47.740;-3.390;2023-05-20T03:15:56;102136.34;;;11.08;100.00
23261;BME280;11799;47.740;-3.390;2023-05-20T03:18:22;102138.22;;;11.06;100.00
23261;BME280;11799;47.740;-3.390;2023-05-20T03:20:48;102138.22;;;11.06;100.00
23261;BME280;11799;47.740;-3.390;2023-05-20T03:23:13;102140.88;;;11.06;100.00
23261;BME280;11799;47.740;-3.390;2023-05-20T03:25:39;102137.53;;;11.02;100.00
23261;BME280;11799;47.740;-3.390;2023-05-20T03:28:05;102144.53;;;11.03;100.00
23261;BME280;11799;47.740;-3.390;2023-05-20T03:30:33;102140.19;;;11.02;100.00
23261;BME280;11799;47.740;-3.390;2023-05-20T03:32:58;102138.50;;;11.01;100.00
23261;BME280;11799;47.740;-3.390;2023-05-20T03:35:24;102132.34;;;11.01;100.00
23261;BME280;11799;47.740;-3.390;2023-05-20T03:37:51;102136.16;;;10.97;100.00
23261;BME280;11799;47.740;-3.390;2023-05-20T03:40:19;102130.09;;;10.95;100.00
23261;BME280;11799;47.740;-3.390;2023-05-20T03:42:47;102128.41;;;10.94;100.00
23261;BME280;11799;47.740;-3.390;2023-05-20T03:45:14;102124.91;;;10.93;100.00
23261;BME280;11799;47.740;-3.390;2023-05-20T03:47:52;102121.50;;;10.91;100.00
23261;BME280;11799;47.740;-3.390;2023-05-20T03:50:18;102120.81;;;10.87;100.00
23261;BME280;11799;47.740;-3.390;2023-05-20T03:52:43;102122.63;;;10.87;100.00
23261;BME280;11799;47.740;-3.390;2023-05-20T03:55:10;102111.38;;;10.83;100.00
23261;BME280;11799;47.740;-3.390;2023-05-20T03:57:36;102104.28;;;10.84;100.00
23261;BME280;11799;47.740;-3.390;2023-05-20T04:00:03;102108.72;;;10.83;100.00
23261;BME280;11799;47.740;-3.390;2023-05-20T04:02:41;102104.47;;;10.81;100.00
23261;BME280;11799;47.740;-3.390;2023-05-20T04:05:07;102107.28;;;10.78;100.00
23261;BME280;11799;47.740;-3.390;2023-05-20T04:07:35;102102.09;;;10.76;100.00
23261;BME280;11799;47.740;-3.390;2023-05-20T04:10:02;102103.03;;;10.75;100.00
23261;BME280;11799;47.740;-3.390;2023-05-20T04:12:28;102097.75;;;10.75;100.00
23261;BME280;11799;47.740;-3.390;2023-05-20T04:14:59;102100.47;;;10.74;100.00
23261;BME280;11799;47.740;-3.390;2023-05-20T04:17:32;102099.63;;;10.73;100.00
23261;BME280;11799;47.740;-3.390;2023-05-20T04:19:57;102100.66;;;10.71;100.00
23261;BME280;11799;47.740;-3.390;2023-05-20T04:22:25;102100.75;;;10.69;100.00
23261;BME280;11799;47.740;-3.390;2023-05-20T04:24:51;102097.44;;;10.66;100.00
23261;BME280;11799;47.740;-3.390;2023-05-20T04:27:16;102105.34;;;10.66;100.00
23261;BME280;11799;47.740;-3.390;2023-05-20T04:29:42;102098.28;;;10.66;100.00
23261;BME280;11799;47.740;-3.390;2023-05-20T04:32:16;102099.31;;;10.64;100.00
23261;BME280;11799;47.740;-3.390;2023-05-20T04:34:43;102093.25;;;10.62;100.00
23261;BME280;11799;47.740;-3.390;2023-05-20T04:37:11;102096.75;;;10.62;100.00
23261;BME280;11799;47.740;-3.390;2023-05-20T04:39:38;102091.66;;;10.59;100.00
23261;BME280;11799;47.740;-3.390;2023-05-20T04:42:04;102090.03;;;10.56;100.00
23261;BME280;11799;47.740;-3.390;2023-05-20T04:44:30;102091.72;;;10.57;100.00
23261;BME280;11799;47.740;-3.390;2023-05-20T04:46:56;102090.13;;;10.55;100.00
23261;BME280;11799;47.740;-3.390;2023-05-20T04:49:25;102091.81;;;10.56;100.00
23261;BME280;11799;47.740;-3.390;2023-05-20T04:51:51;102091.91;;;10.54;100.00
23261;BME280;11799;47.740;-3.390;2023-05-20T04:54:17;102094.63;;;10.53;100.00
23261;BME280;11799;47.740;-3.390;2023-05-20T04:56:44;102095.41;;;10.55;100.00
23261;BME280;11799;47.740;-3.390;2023-05-20T04:59:11;102093.69;;;10.54;100.00
23261;BME280;11799;47.740;-3.390;2023-05-20T05:01:38;102093.63;;;10.55;100.00
23261;BME280;11799;47.740;-3.390;2023-05-20T05:04:04;102091.06;;;10.54;100.00
23261;BME280;11799;47.740;-3.390;2023-05-20T05:06:29;102095.41;;;10.55;100.00
23261;BME280;11799;47.740;-3.390;2023-05-20T05:08:57;102096.16;;;10.57;100.00
23261;BME280;11799;47.740;-3.390;2023-05-20T05:11:23;102100.50;;;10.58;100.00
23261;BME280;11799;47.740;-3.390;2023-05-20T05:13:48;102105.78;;;10.58;100.00
23261;BME280;11799;47.740;-3.390;2023-05-20T05:16:14;102107.31;;;10.62;100.00
23261;BME280;11799;47.740;-3.390;2023-05-20T05:18:41;102114.31;;;10.63;100.00
23261;BME280;11799;47.740;-3.390;2023-05-20T05:21:06;102107.06;;;10.67;100.00
23261;BME280;11799;47.740;-3.390;2023-05-20T05:23:33;102102.44;;;10.70;100.00
23261;BME280;11799;47.740;-3.390;2023-05-20T05:25:59;102106.53;;;10.76;100.00
23261;BME280;11799;47.740;-3.390;2023-05-20T05:28:26;102110.69;;;10.80;100.00
23261;BME280;11799;47.740;-3.390;2023-05-20T05:30:53;102111.28;;;10.85;100.00
23261;BME280;11799;47.740;-3.390;2023-05-20T05:33:19;102111.97;;;10.88;100.00
23261;BME280;11799;47.740;-3.390;2023-05-20T05:35:45;102102.91;;;10.93;100.00
23261;BME280;11799;47.740;-3.390;2023-05-20T05:38:11;102104.22;;;11.00;100.00
23261;BME280;11799;47.740;-3.390;2023-05-20T05:40:36;102103.09;;;11.04;100.00
23261;BME280;11799;47.740;-3.390;2023-05-20T05:43:02;102101.22;;;11.06;100.00
23261;BME280;11799;47.740;-3.390;2023-05-20T05:45:28;102100.09;;;11.10;100.00
23261;BME280;11799;47.740;-3.390;2023-05-20T05:47:54;102101.53;;;11.15;100.00
23261;BME280;11799;47.740;-3.390;2023-05-20T05:50:20;102097.66;;;11.21;100.00
23261;BME280;11799;47.740;-3.390;2023-05-20T05:52:45;102098.13;;;11.28;100.00
23261;BME280;11799;47.740;-3.390;2023-05-20T05:55:11;102096.06;;;11.33;100.00
23261;BME280;11799;47.740;-3.390;2023-05-20T05:57:37;102090.41;;;11.39;100.00
23261;BME280;11799;47.740;-3.390;2023-05-20T06:00:03;102086.63;;;11.43;100.00
23261;BME280;11799;47.740;-3.390;2023-05-20T06:02:32;102078.88;;;11.40;100.00
23261;BME280;11799;47.740;-3.390;2023-05-20T06:05:03;102090.50;;;11.51;100.00
23261;BME280;11799;47.740;-3.390;2023-05-20T06:07:29;102090.19;;;11.56;100.00
23261;BME280;11799;47.740;-3.390;2023-05-20T06:09:56;102085.56;;;11.59;100.00
23261;BME280;11799;47.740;-3.390;2023-05-20T06:12:21;102087.75;;;11.67;100.00
23261;BME280;11799;47.740;-3.390;2023-05-20T06:14:47;102075.94;;;11.73;100.00
23261;BME280;11799;47.740;-3.390;2023-05-20T06:17:13;102075.56;;;11.79;100.00
23261;BME280;11799;47.740;-3.390;2023-05-20T06:19:39;102067.44;;;11.82;100.00
23261;BME280;11799;47.740;-3.390;2023-05-20T06:22:05;102070.66;;;11.87;100.00
23261;BME280;11799;47.740;-3.390;2023-05-20T06:24:30;102064.13;;;11.93;100.00
23261;BME280;11799;47.740;-3.390;2023-05-20T06:26:56;102064.47;;;12.01;100.00
23261;BME280;11799;47.740;-3.390;2023-05-20T06:29:22;102065.88;;;12.06;100.00
23261;BME280;11799;47.740;-3.390;2023-05-20T06:31:50;102068.00;;;12.14;100.00
23261;BME280;11799;47.740;-3.390;2023-05-20T06:34:15;102068.38;;;12.22;100.00
23261;BME280;11799;47.740;-3.390;2023-05-20T06:36:41;102057.94;;;12.33;100.00
23261;BME280;11799;47.740;-3.390;2023-05-20T06:39:07;102064.97;;;12.47;100.00
23261;BME280;11799;47.740;-3.390;2023-05-20T06:41:39;102064.91;;;12.61;100.00
23261;BME280;11799;47.740;-3.390;2023-05-20T06:44:08;102063.66;;;12.79;100.00
23261;BME280;11799;47.740;-3.390;2023-05-20T06:47:09;102066.81;;;13.24;100.00
23261;BME280;11799;47.740;-3.390;2023-05-20T06:49:35;102064.31;;;13.72;100.00
23261;BME280;11799;47.740;-3.390;2023-05-20T06:52:01;102052.22;;;14.28;100.00
23261;BME280;11799;47.740;-3.390;2023-05-20T06:54:27;102057.19;;;14.92;100.00
23261;BME280;11799;47.740;-3.390;2023-05-20T06:56:53;102055.78;;;15.55;100.00
23261;BME280;11799;47.740;-3.390;2023-05-20T06:59:20;102051.56;;;16.17;100.00
23261;BME280;11799;47.740;-3.390;2023-05-20T07:01:46;102039.88;;;16.73;87.30
23261;BME280;11799;47.740;-3.390;2023-05-20T07:04:12;102036.38;;;17.24;80.25
23261;BME280;11799;47.740;-3.390;2023-05-20T07:06:38;102041.66;;;17.75;77.55
23261;BME280;11799;47.740;-3.390;2023-05-20T07:09:03;102034.00;;;18.30;72.32
23261;BME280;11799;47.740;-3.390;2023-05-20T07:11:31;102035.53;;;18.80;65.41
23261;BME280;11799;47.740;-3.390;2023-05-20T07:13:56;102025.38;;;19.31;61.28
23261;BME280;11799;47.740;-3.390;2023-05-20T07:16:23;102022.19;;;19.82;57.77
23261;BME280;11799;47.740;-3.390;2023-05-20T07:18:52;102021.75;;;20.22;54.26
23261;BME280;11799;47.740;-3.390;2023-05-20T07:21:18;102017.34;;;20.49;52.00
23261;BME280;11799;47.740;-3.390;2023-05-20T07:23:59;102008.00;;;20.79;50.44
23261;BME280;11799;47.740;-3.390;2023-05-20T07:26:25;102004.66;;;21.10;49.02
23261;BME280;11799;47.740;-3.390;2023-05-20T07:28:51;102009.06;;;21.46;49.04
23261;BME280;11799;47.740;-3.390;2023-05-20T07:31:16;102003.16;;;21.84;47.02
23261;BME280;11799;47.740;-3.390;2023-05-20T07:33:43;102000.84;;;22.14;45.49
23261;BME280;11799;47.740;-3.390;2023-05-20T07:36:08;101996.50;;;22.29;44.10
23261;BME280;11799;47.740;-3.390;2023-05-20T07:38:36;101994.50;;;22.47;43.56
23261;BME280;11799;47.740;-3.390;2023-05-20T07:41:05;101989.56;;;22.67;42.98
23261;BME280;11799;47.740;-3.390;2023-05-20T07:43:32;101994.13;;;22.74;42.29
23261;BME280;11799;47.740;-3.390;2023-05-20T07:45:58;101997.13;;;22.96;42.26
23261;BME280;11799;47.740;-3.390;2023-05-20T07:48:23;101996.44;;;23.10;42.35
23261;BME280;11799;47.740;-3.390;2023-05-20T07:50:49;101996.19;;;23.28;41.25
23261;BME280;11799;47.740;-3.390;2023-05-20T07:53:15;101995.94;;;23.54;41.12
23261;BME280;11799;47.740;-3.390;2023-05-20T07:55:42;101994.59;;;23.81;40.07
23261;BME280;11799;47.740;-3.390;2023-05-20T07:58:08;101989.19;;;24.12;39.66
23261;BME280;11799;47.740;-3.390;2023-05-20T08:00:34;101990.53;;;24.53;37.81
23261;BME280;11799;47.740;-3.390;2023-05-20T08:03:03;101988.19;;;25.02;38.17
23261;BME280;11799;47.740;-3.390;2023-05-20T08:05:41;101987.47;;;25.09;37.13
23261;BME280;11799;47.740;-3.390;2023-05-20T08:08:06;101982.53;;;25.63;36.51
23261;BME280;11799;47.740;-3.390;2023-05-20T08:10:44;101984.03;;;25.80;35.64
23261;BME280;11799;47.740;-3.390;2023-05-20T08:13:10;101980.09;;;25.83;34.43
23261;BME280;11799;47.740;-3.390;2023-05-20T08:15:36;101986.63;;;25.38;34.27
23261;BME280;11799;47.740;-3.390;2023-05-20T08:18:02;101983.88;;;24.79;36.30
23261;BME280;11799;47.740;-3.390;2023-05-20T08:20:28;101988.75;;;24.46;36.64
23261;BME280;11799;47.740;-3.390;2023-05-20T08:22:55;101987.78;;;23.93;37.32
23261;BME280;11799;47.740;-3.390;2023-05-20T08:25:20;101980.16;;;23.34;37.50
23261;BME280;11799;47.740;-3.390;2023-05-20T08:27:48;101985.00;;;23.00;39.42
23261;BME280;11799;47.740;-3.390;2023-05-20T08:30:15;101986.03;;;22.99;39.08
23261;BME280;11799;47.740;-3.390;2023-05-20T08:32:40;101992.59;;;22.64;39.32
23261;BME280;11799;47.740;-3.390;2023-05-20T08:35:06;101985.22;;;22.17;40.44
23261;BME280;11799;47.740;-3.390;2023-05-20T08:37:31;101988.53;;;21.87;41.47
23261;BME280;11799;47.740;-3.390;2023-05-20T08:39:57;101991.75;;;21.48;42.97
23261;BME280;11799;47.740;-3.390;2023-05-20T08:42:23;101997.72;;;21.26;43.26
23261;BME280;11799;47.740;-3.390;2023-05-20T08:44:53;101986.63;;;20.95;43.38
23261;BME280;11799;47.740;-3.390;2023-05-20T08:47:22;101988.78;;;20.65;44.91
23261;BME280;11799;47.740;-3.390;2023-05-20T08:49:48;101986.19;;;20.56;44.81
23261;BME280;11799;47.740;-3.390;2023-05-20T08:52:15;101984.06;;;20.41;45.74
23261;BME280;11799;47.740;-3.390;2023-05-20T08:54:46;101970.13;;;20.38;46.38
23261;BME280;11799;47.740;-3.390;2023-05-20T08:57:12;101987.91;;;20.39;46.37
23261;BME280;11799;47.740;-3.390;2023-05-20T08:59:45;101988.78;;;20.30;46.53
23261;BME280;11799;47.740;-3.390;2023-05-20T09:02:11;101977.19;;;20.21;46.41
23261;BME280;11799;47.740;-3.390;2023-05-20T09:04:37;101974.13;;;20.16;47.87
23261;BME280;11799;47.740;-3.390;2023-05-20T09:07:03;101979.25;;;20.09;47.84
23261;BME280;11799;47.740;-3.390;2023-05-20T09:09:29;101976.56;;;20.09;48.90
23261;BME280;11799;47.740;-3.390;2023-05-20T09:11:55;101980.94;;;20.10;48.03
23261;BME280;11799;47.740;-3.390;2023-05-20T09:14:21;101980.16;;;20.00;48.68
23261;BME280;11799;47.740;-3.390;2023-05-20T09:16:48;101975.09;;;19.97;48.49
23261;BME280;11799;47.740;-3.390;2023-05-20T09:19:13;101975.72;;;19.91;47.87
23261;BME280;11799;47.740;-3.390;2023-05-20T09:21:40;101968.97;;;19.87;48.69
23261;BME280;11799;47.740;-3.390;2023-05-20T09:24:06;101964.91;;;19.83;48.57
23261;BME280;11799;47.740;-3.390;2023-05-20T09:26:32;101969.28;;;19.84;48.70
23261;BME280;11799;47.740;-3.390;2023-05-20T09:28:58;101969.66;;;19.89;50.75
23261;BME280;11799;47.740;-3.390;2023-05-20T09:31:27;101962.81;;;19.77;49.22
23261;BME280;11799;47.740;-3.390;2023-05-20T09:33:55;101956.63;;;19.76;50.97
23261;BME280;11799;47.740;-3.390;2023-05-20T09:36:22;101954.34;;;19.82;50.69
23261;BME280;11799;47.740;-3.390;2023-05-20T09:38:51;101956.00;;;19.83;54.80
23261;BME280;11799;47.740;-3.390;2023-05-20T09:41:19;101958.41;;;19.86;50.56
23261;BME280;11799;47.740;-3.390;2023-05-20T09:43:47;101950.44;;;19.94;53.21
23261;BME280;11799;47.740;-3.390;2023-05-20T09:46:14;101945.00;;;20.03;53.10
23261;BME280;11799;47.740;-3.390;2023-05-20T09:48:40;101948.91;;;20.09;50.85
23261;BME280;11799;47.740;-3.390;2023-05-20T09:51:07;101948.44;;;20.14;52.06
23261;BME280;11799;47.740;-3.390;2023-05-20T09:53:33;101941.28;;;20.22;50.31
23261;BME280;11799;47.740;-3.390;2023-05-20T09:55:58;101949.03;;;20.25;51.31
23261;BME280;11799;47.740;-3.390;2023-05-20T09:58:24;101946.34;;;20.25;51.55
23261;BME280;11799;47.740;-3.390;2023-05-20T10:00:51;101948.34;;;20.23;52.69
23261;BME280;11799;47.740;-3.390;2023-05-20T10:03:20;101947.00;;;20.19;50.46
23261;BME280;11799;47.740;-3.390;2023-05-20T10:09:04;101940.34;;;20.31;54.62
23261;BME280;11799;47.740;-3.390;2023-05-20T10:11:39;101941.34;;;20.30;53.40
23261;BME280;11799;47.740;-3.390;2023-05-20T10:14:30;101934.47;;;20.28;52.91
23261;BME280;11799;47.740;-3.390;2023-05-20T10:19:39;101931.00;;;20.35;50.78
23261;BME280;11799;47.740;-3.390;2023-05-20T10:22:09;101936.84;;;20.49;53.06
23261;BME280;11799;47.740;-3.390;2023-05-20T10:24:42;101916.94;;;20.59;51.97
23261;BME280;11799;47.740;-3.390;2023-05-20T10:27:10;101925.38;;;20.64;50.32
23261;BME280;11799;47.740;-3.390;2023-05-20T10:32:24;101919.84;;;20.66;49.35
23261;BME280;11799;47.740;-3.390;2023-05-20T10:34:50;101918.53;;;20.70;49.43
23261;BME280;11799;47.740;-3.390;2023-05-20T10:37:29;101919.91;;;20.74;52.19
23261;BME280;11799;47.740;-3.390;2023-05-20T10:40:21;101918.31;;;20.63;50.21
23261;BME280;11799;47.740;-3.390;2023-05-20T10:42:47;101918.16;;;20.65;50.91
23261;BME280;11799;47.740;-3.390;2023-05-20T10:45:27;101919.84;;;20.66;50.67
23261;BME280;11799;47.740;-3.390;2023-05-20T10:47:56;101923.69;;;20.63;50.55
23261;BME280;11799;47.740;-3.390;2023-05-20T10:50:36;101909.16;;;20.74;50.44
23261;BME280;11799;47.740;-3.390;2023-05-20T10:53:03;101916.38;;;20.73;52.16
23261;BME280;11799;47.740;-3.390;2023-05-20T10:55:35;101902.69;;;20.59;50.95
23261;BME280;11799;47.740;-3.390;2023-05-20T10:58:01;101907.84;;;20.52;52.82
23261;BME280;11799;47.740;-3.390;2023-05-20T11:00:27;101918.63;;;20.60;52.12
23261;BME280;11799;47.740;-3.390;2023-05-20T11:02:54;101909.28;;;20.64;51.37
23261;BME280;11799;47.740;-3.390;2023-05-20T11:05:20;101903.59;;;20.67;51.15
23261;BME280;11799;47.740;-3.390;2023-05-20T11:07:46;101904.13;;;20.71;51.75
23261;BME280;11799;47.740;-3.390;2023-05-20T11:10:11;101889.91;;;20.79;52.42
23261;BME280;11799;47.740;-3.390;2023-05-20T11:12:38;101886.22;;;20.88;51.10
23261;BME280;11799;47.740;-3.390;2023-05-20T11:15:04;101890.31;;;21.00;50.81
23261;BME280;11799;47.740;-3.390;2023-05-20T11:17:29;101893.03;;;21.08;46.51
23261;BME280;11799;47.740;-3.390;2023-05-20T11:19:55;101891.38;;;21.15;45.39
23261;BME280;11799;47.740;-3.390;2023-05-20T11:22:25;101880.88;;;21.22;44.83
23261;BME280;11799;47.740;-3.390;2023-05-20T11:24:50;101869.97;;;21.31;45.89
23261;BME280;11799;47.740;-3.390;2023-05-20T11:27:17;101884.59;;;21.45;45.83
23261;BME280;11799;47.740;-3.390;2023-05-20T11:29:43;101877.72;;;21.51;46.00
23261;BME280;11799;47.740;-3.390;2023-05-20T11:32:09;101877.22;;;21.47;46.65
23261;BME280;11799;47.740;-3.390;2023-05-20T11:34:36;101875.88;;;21.51;45.10
23261;BME280;11799;47.740;-3.390;2023-05-20T11:37:06;101874.72;;;21.54;46.31
23261;BME280;11799;47.740;-3.390;2023-05-20T11:39:32;101878.75;;;21.58;44.80
23261;BME280;11799;47.740;-3.390;2023-05-20T11:41:58;101877.91;;;21.57;44.04
23261;BME280;11799;47.740;-3.390;2023-05-20T11:44:24;101869.69;;;21.59;45.03
23261;BME280;11799;47.740;-3.390;2023-05-20T11:46:49;101876.56;;;21.61;44.08
23261;BME280;11799;47.740;-3.390;2023-05-20T11:49:15;101877.75;;;21.75;43.34
23261;BME280;11799;47.740;-3.390;2023-05-20T11:51:44;101867.53;;;21.87;42.88
23261;BME280;11799;47.740;-3.390;2023-05-20T11:54:09;101867.69;;;22.10;43.04
23261;BME280;11799;47.740;-3.390;2023-05-20T11:56:36;101859.25;;;22.45;43.54
23261;BME280;11799;47.740;-3.390;2023-05-20T11:59:03;101855.78;;;22.76;42.82
23261;BME280;11799;47.740;-3.390;2023-05-20T12:01:37;101844.59;;;23.03;41.95
23261;BME280;11799;47.740;-3.390;2023-05-20T12:04:06;101848.56;;;22.68;40.56
23261;BME280;11799;47.740;-3.390;2023-05-20T12:06:32;101846.56;;;23.09;41.17
23261;BME280;11799;47.740;-3.390;2023-05-20T12:09:00;101852.06;;;23.16;38.93
23261;BME280;11799;47.740;-3.390;2023-05-20T12:11:32;101850.03;;;23.18;38.86
23261;BME280;11799;47.740;-3.390;2023-05-20T12:13:58;101846.31;;;23.50;38.10
23261;BME280;11799;47.740;-3.390;2023-05-20T12:16:23;101857.31;;;23.40;37.37
23261;BME280;11799;47.740;-3.390;2023-05-20T12:18:49;101866.94;;;23.88;36.88
23261;BME280;11799;47.740;-3.390;2023-05-20T12:21:14;101840.78;;;24.26;36.00
23261;BME280;11799;47.740;-3.390;2023-05-20T12:23:40;101835.78;;;24.67;36.45
23261;BME280;11799;47.740;-3.390;2023-05-20T12:26:05;101832.88;;;24.84;36.82
23261;BME280;11799;47.740;-3.390;2023-05-20T12:28:31;101831.59;;;24.65;35.76
23261;BME280;11799;47.740;-3.390;2023-05-20T12:30:57;101834.13;;;24.66;35.70
23261;BME280;11799;47.740;-3.390;2023-05-20T12:33:23;101838.91;;;24.86;35.35
23261;BME280;11799;47.740;-3.390;2023-05-20T12:35:48;101826.16;;;25.09;32.84
23261;BME280;11799;47.740;-3.390;2023-05-20T12:38:14;101830.69;;;25.23;33.83
23261;BME280;11799;47.740;-3.390;2023-05-20T12:40:39;101822.09;;;24.84;33.48
23261;BME280;11799;47.740;-3.390;2023-05-20T12:43:05;101823.59;;;24.57;35.73